sensor_id;sensor_type;location;lat;lon;timestamp;pressure;altitude;pressure_sealevel;temperature;humidity
17362;BME280;8798;51.938;4.348;2024-01-30T00:00:34;102607.41;;;11.23;78.37
17362;BME280;8798;51.938;4.348;2024-01-30T00:03:02;102612.78;;;11.23;78.19
17362;BME280;8798;51.938;4.348;2024-01-30T00:05:31;102611.91;;;11.23;78.57
17362;BME280;8798;51.938;4.348;2024-01-30T00:07:59;102606.63;;;11.21;77.68
17362;BME280;8798;51.938;4.348;2024-01-30T00:10:27;102609.34;;;11.21;78.71
17362;BME280;8798;51.938;4.348;2024-01-30T00:12:55;102597.59;;;11.22;78.02
17362;BME280;8798;51.938;4.348;2024-01-30T00:15:23;102608.25;;;11.24;78.41
17362;BME280;8798;51.938;4.348;2024-01-30T00:17:51;102617.16;;;11.24;77.83
17362;BME280;8798;51.938;4.348;2024-01-30T00:20:20;102617.06;;;11.26;78.50
17362;BME280;8798;51.938;4.348;2024-01-30T00:22:49;102621.59;;;11.25;78.70
17362;BME280;8798;51.938;4.348;2024-01-30T00:25:17;102623.19;;;11.28;78.53
17362;BME280;8798;51.938;4.348;2024-01-30T00:27:46;102639.09;;;11.31;77.94
17362;BME280;8798;51.938;4.348;2024-01-30T00:30:14;102641.66;;;11.32;78.58
17362;BME280;8798;51.938;4.348;2024-01-30T00:32:42;102639.88;;;11.33;78.33
17362;BME280;8798;51.938;4.348;2024-01-30T00:35:10;102638.88;;;11.34;78.42
17362;BME280;8798;51.938;4.348;2024-01-30T00:37:38;102648.66;;;11.35;78.51
17362;BME280;8798;51.938;4.348;2024-01-30T00:40:08;102642.44;;;11.34;78.44
17362;BME280;8798;51.938;4.348;2024-01-30T00:42:42;102642.56;;;11.33;78.31
17362;BME280;8798;51.938;4.348;2024-01-30T00:45:12;102638.13;;;11.32;78.33
17362;BME280;8798;51.938;4.348;2024-01-30T00:47:40;102632.75;;;11.32;78.82
17362;BME280;8798;51.938;4.348;2024-01-30T00:50:09;102628.34;;;11.31;78.19
17362;BME280;8798;51.938;4.348;2024-01-30T00:52:37;102625.66;;;11.31;78.22
17362;BME280;8798;51.938;4.348;2024-01-30T00:55:06;102608.88;;;11.27;78.43
17362;BME280;8798;51.938;4.348;2024-01-30T00:57:35;102609.75;;;11.28;78.19
17362;BME280;8798;51.938;4.348;2024-01-30T01:00:04;102604.47;;;11.26;78.37
17362;BME280;8798;51.938;4.348;2024-01-30T01:02:34;102599.09;;;11.26;78.63
17362;BME280;8798;51.938;4.348;2024-01-30T01:05:02;102597.38;;;11.25;78.61
17362;BME280;8798;51.938;4.348;2024-01-30T01:07:31;102599.19;;;11.25;78.13
17362;BME280;8798;51.938;4.348;2024-01-30T01:09:59;102595.66;;;11.24;78.21
17362;BME280;8798;51.938;4.348;2024-01-30T01:12:27;102597.38;;;11.25;78.67
17362;BME280;8798;51.938;4.348;2024-01-30T01:14:56;102598.25;;;11.26;78.52
17362;BME280;8798;51.938;4.348;2024-01-30T01:17:24;102599.84;;;11.28;78.36
17362;BME280;8798;51.938;4.348;2024-01-30T01:19:52;102614.03;;;11.30;78.42
17362;BME280;8798;51.938;4.348;2024-01-30T01:22:20;102621.13;;;11.31;78.13
17362;BME280;8798;51.938;4.348;2024-01-30T01:24:49;102621.97;;;11.32;78.38
17362;BME280;8798;51.938;4.348;2024-01-30T01:27:17;102622.84;;;11.32;78.63
17362;BME280;8798;51.938;4.348;2024-01-30T01:29:45;102616.50;;;11.33;78.54
17362;BME280;8798;51.938;4.348;2024-01-30T01:32:14;102621.88;;;11.33;78.44
17362;BME280;8798;51.938;4.348;2024-01-30T01:34:42;102614.66;;;11.34;78.45
17362;BME280;8798;51.938;4.348;2024-01-30T01:37:10;102621.03;;;11.33;77.75
17362;BME280;8798;51.938;4.348;2024-01-30T01:39:38;102612.06;;;11.32;78.04
17362;BME280;8798;51.938;4.348;2024-01-30T01:42:06;102611.22;;;11.32;78.83
17362;BME280;8798;51.938;4.348;2024-01-30T01:44:34;102603.28;;;11.30;78.08
17362;BME280;8798;51.938;4.348;2024-01-30T01:47:03;102614.75;;;11.32;78.05
17362;BME280;8798;51.938;4.348;2024-01-30T01:49:32;102609.38;;;11.32;77.92
17362;BME280;8798;51.938;4.348;2024-01-30T01:52:00;102602.31;;;11.31;78.10
17362;BME280;8798;51.938;4.348;2024-01-30T01:54:29;102589.94;;;11.29;78.46
17362;BME280;8798;51.938;4.348;2024-01-30T01:56:57;102586.38;;;11.28;78.67
17362;BME280;8798;51.938;4.348;2024-01-30T01:59:25;102592.63;;;11.29;78.43
17362;BME280;8798;51.938;4.348;2024-01-30T02:01:54;102587.34;;;11.27;78.54
17362;BME280;8798;51.938;4.348;2024-01-30T02:04:23;102582.84;;;11.28;78.00
17362;BME280;8798;51.938;4.348;2024-01-30T02:06:55;102591.78;;;11.28;78.28
17362;BME280;8798;51.938;4.348;2024-01-30T02:09:23;102592.63;;;11.29;77.93
17362;BME280;8798;51.938;4.348;2024-01-30T02:11:51;102596.06;;;11.31;78.45
17362;BME280;8798;51.938;4.348;2024-01-30T02:14:19;102599.59;;;11.31;78.19
17362;BME280;8798;51.938;4.348;2024-01-30T02:16:47;102596.91;;;11.31;78.02
17362;BME280;8798;51.938;4.348;2024-01-30T02:19:15;102595.06;;;11.32;78.50
17362;BME280;8798;51.938;4.348;2024-01-30T02:21:45;102593.38;;;11.31;78.48
17362;BME280;8798;51.938;4.348;2024-01-30T02:24:13;102578.19;;;11.30;78.02
17362;BME280;8798;51.938;4.348;2024-01-30T02:26:41;102579.28;;;11.27;78.15
17362;BME280;8798;51.938;4.348;2024-01-30T02:29:09;102582.84;;;11.28;77.79
17362;BME280;8798;51.938;4.348;2024-01-30T02:31:37;102574.78;;;11.28;78.41
17362;BME280;8798;51.938;4.348;2024-01-30T02:34:05;102579.28;;;11.27;78.22
17362;BME280;8798;51.938;4.348;2024-01-30T02:36:33;102569.50;;;11.26;78.38
17362;BME280;8798;51.938;4.348;2024-01-30T02:39:03;102557.88;;;11.26;78.42
17362;BME280;8798;51.938;4.348;2024-01-30T02:41:31;102556.16;;;11.25;78.55
17362;BME280;8798;51.938;4.348;2024-01-30T02:43:59;102548.22;;;11.23;78.45
17362;BME280;8798;51.938;4.348;2024-01-30T02:46:28;102544.66;;;11.23;77.93
17362;BME280;8798;51.938;4.348;2024-01-30T02:48:55;102542.84;;;11.23;78.05
17362;BME280;8798;51.938;4.348;2024-01-30T02:51:24;102551.66;;;11.25;78.62
17362;BME280;8798;51.938;4.348;2024-01-30T02:53:52;102557.88;;;11.26;78.50
17362;BME280;8798;51.938;4.348;2024-01-30T02:56:21;102564.00;;;11.28;78.35
17362;BME280;8798;51.938;4.348;2024-01-30T02:58:49;102567.56;;;11.28;78.48
17362;BME280;8798;51.938;4.348;2024-01-30T03:01:17;102566.72;;;11.28;78.17
17362;BME280;8798;51.938;4.348;2024-01-30T03:03:45;102554.22;;;11.27;78.37
17362;BME280;8798;51.938;4.348;2024-01-30T03:06:13;102567.44;;;11.30;78.09
17362;BME280;8798;51.938;4.348;2024-01-30T03:08:44;102563.03;;;11.29;78.58
17362;BME280;8798;51.938;4.348;2024-01-30T03:11:12;102558.63;;;11.28;78.06
17362;BME280;8798;51.938;4.348;2024-01-30T03:13:41;102568.50;;;11.27;77.99
17362;BME280;8798;51.938;4.348;2024-01-30T03:16:09;102551.53;;;11.27;78.42
17362;BME280;8798;51.938;4.348;2024-01-30T03:18:37;102549.81;;;11.26;78.69
17362;BME280;8798;51.938;4.348;2024-01-30T03:21:05;102544.44;;;11.26;78.36
17362;BME280;8798;51.938;4.348;2024-01-30T03:23:33;102549.81;;;11.26;78.08
17362;BME280;8798;51.938;4.348;2024-01-30T03:26:01;102548.84;;;11.27;77.91
17362;BME280;8798;51.938;4.348;2024-01-30T03:28:31;102548.84;;;11.27;78.43
17362;BME280;8798;51.938;4.348;2024-01-30T03:31:00;102549.81;;;11.26;78.24
17362;BME280;8798;51.938;4.348;2024-01-30T03:33:29;102535.50;;;11.25;78.62
17362;BME280;8798;51.938;4.348;2024-01-30T03:35:56;102540.88;;;11.25;78.36
17362;BME280;8798;51.938;4.348;2024-01-30T03:38:24;102525.72;;;11.24;78.13
17362;BME280;8798;51.938;4.348;2024-01-30T03:40:52;102541.75;;;11.26;78.57
17362;BME280;8798;51.938;4.348;2024-01-30T03:43:20;102536.38;;;11.26;77.86
17362;BME280;8798;51.938;4.348;2024-01-30T03:45:48;102548.84;;;11.27;77.91
17362;BME280;8798;51.938;4.348;2024-01-30T03:48:18;102544.44;;;11.26;78.17
17362;BME280;8798;51.938;4.348;2024-01-30T03:50:49;102531.00;;;11.26;78.47
17362;BME280;8798;51.938;4.348;2024-01-30T03:53:17;102536.38;;;11.26;78.03
17362;BME280;8798;51.938;4.348;2024-01-30T03:55:45;102531.09;;;11.24;78.40
17362;BME280;8798;51.938;4.348;2024-01-30T03:58:13;102534.75;;;11.23;78.53
17362;BME280;8798;51.938;4.348;2024-01-30T04:00:41;102534.63;;;11.25;78.50
17362;BME280;8798;51.938;4.348;2024-01-30T04:03:09;102542.59;;;11.26;78.12
17362;BME280;8798;51.938;4.348;2024-01-30T04:05:38;102546.13;;;11.27;78.21
17362;BME280;8798;51.938;4.348;2024-01-30T04:08:06;102537.13;;;11.28;78.58
17362;BME280;8798;51.938;4.348;2024-01-30T04:10:34;102549.59;;;11.29;78.22
17362;BME280;8798;51.938;4.348;2024-01-30T04:13:02;102553.03;;;11.31;78.56
17362;BME280;8798;51.938;4.348;2024-01-30T04:15:30;102547.75;;;11.29;78.56
17362;BME280;8798;51.938;4.348;2024-01-30T04:17:59;102555.72;;;11.31;78.35
17362;BME280;8798;51.938;4.348;2024-01-30T04:20:27;102553.97;;;11.30;78.78
17362;BME280;8798;51.938;4.348;2024-01-30T04:22:56;102552.16;;;11.30;78.21
17362;BME280;8798;51.938;4.348;2024-01-30T04:25:24;102552.88;;;11.32;78.73
17362;BME280;8798;51.938;4.348;2024-01-30T04:27:52;102562.56;;;11.35;78.73
17362;BME280;8798;51.938;4.348;2024-01-30T04:30:20;102557.19;;;11.35;78.70
17362;BME280;8798;51.938;4.348;2024-01-30T04:32:48;102565.25;;;11.35;78.53
17362;BME280;8798;51.938;4.348;2024-01-30T04:35:16;102562.56;;;11.35;78.44
17362;BME280;8798;51.938;4.348;2024-01-30T04:37:47;102558.06;;;11.35;78.56
17362;BME280;8798;51.938;4.348;2024-01-30T04:40:16;102558.91;;;11.36;78.34
17362;BME280;8798;51.938;4.348;2024-01-30T04:42:45;102564.28;;;11.36;78.39
17362;BME280;8798;51.938;4.348;2024-01-30T04:45:13;102566.88;;;11.37;78.40
17362;BME280;8798;51.938;4.348;2024-01-30T04:47:41;102566.88;;;11.37;78.67
17362;BME280;8798;51.938;4.348;2024-01-30T04:50:09;102562.34;;;11.38;78.68
17362;BME280;8798;51.938;4.348;2024-01-30T04:52:37;102570.28;;;11.39;78.83
17362;BME280;8798;51.938;4.348;2024-01-30T04:55:06;102580.84;;;11.43;78.24
17362;BME280;8798;51.938;4.348;2024-01-30T04:57:36;102584.41;;;11.43;78.07
17362;BME280;8798;51.938;4.348;2024-01-30T05:00:05;102592.47;;;11.43;78.83
17362;BME280;8798;51.938;4.348;2024-01-30T05:02:33;102587.94;;;11.44;78.81
17362;BME280;8798;51.938;4.348;2024-01-30T05:05:02;102595.91;;;11.45;78.54
17362;BME280;8798;51.938;4.348;2024-01-30T05:07:31;102579.75;;;11.45;78.20
17362;BME280;8798;51.938;4.348;2024-01-30T05:09:59;102583.31;;;11.46;78.29
17362;BME280;8798;51.938;4.348;2024-01-30T05:12:31;102584.16;;;11.46;78.68
17362;BME280;8798;51.938;4.348;2024-01-30T05:15:00;102590.41;;;11.47;78.08
17362;BME280;8798;51.938;4.348;2024-01-30T05:17:29;102583.31;;;11.46;78.43
17362;BME280;8798;51.938;4.348;2024-01-30T05:19:57;102582.31;;;11.47;78.38
17362;BME280;8798;51.938;4.348;2024-01-30T05:22:25;102585.88;;;11.47;78.85
17362;BME280;8798;51.938;4.348;2024-01-30T05:24:53;102590.28;;;11.48;78.92
17362;BME280;8798;51.938;4.348;2024-01-30T05:27:21;102583.06;;;11.49;78.24
17362;BME280;8798;51.938;4.348;2024-01-30T05:29:49;102591.03;;;11.50;78.35
17362;BME280;8798;51.938;4.348;2024-01-30T05:32:18;102591.91;;;11.51;78.82
17362;BME280;8798;51.938;4.348;2024-01-30T05:34:46;102598.88;;;11.53;78.72
17362;BME280;8798;51.938;4.348;2024-01-30T05:37:14;102603.28;;;11.54;78.94
17362;BME280;8798;51.938;4.348;2024-01-30T05:39:44;102604.25;;;11.53;78.69
17362;BME280;8798;51.938;4.348;2024-01-30T05:42:12;102591.78;;;11.52;78.47
17362;BME280;8798;51.938;4.348;2024-01-30T05:44:41;102598.03;;;11.53;78.67
17362;BME280;8798;51.938;4.348;2024-01-30T05:47:09;102595.19;;;11.54;78.65
17362;BME280;8798;51.938;4.348;2024-01-30T05:49:39;102592.66;;;11.53;78.11
17362;BME280;8798;51.938;4.348;2024-01-30T05:52:07;102596.09;;;11.55;78.84
17362;BME280;8798;51.938;4.348;2024-01-30T05:54:35;102601.34;;;11.56;78.12
17362;BME280;8798;51.938;4.348;2024-01-30T05:57:03;102607.47;;;11.58;78.38
17362;BME280;8798;51.938;4.348;2024-01-30T05:59:31;102616.28;;;11.60;78.32
17362;BME280;8798;51.938;4.348;2024-01-30T06:01:59;102619.72;;;11.62;78.74
17362;BME280;8798;51.938;4.348;2024-01-30T06:04:27;102619.72;;;11.62;78.70
17362;BME280;8798;51.938;4.348;2024-01-30T06:06:57;102618.75;;;11.63;78.51
17362;BME280;8798;51.938;4.348;2024-01-30T06:09:28;102622.19;;;11.66;78.69
17362;BME280;8798;51.938;4.348;2024-01-30T06:11:57;102635.53;;;11.67;78.79
17362;BME280;8798;51.938;4.348;2024-01-30T06:14:25;102636.41;;;11.68;78.61
17362;BME280;8798;51.938;4.348;2024-01-30T06:16:53;102636.25;;;11.69;78.01
17362;BME280;8798;51.938;4.348;2024-01-30T06:19:21;102629.28;;;11.67;78.18
17362;BME280;8798;51.938;4.348;2024-01-30T06:21:53;102628.31;;;11.68;78.27
17362;BME280;8798;51.938;4.348;2024-01-30T06:24:22;102623.78;;;11.68;77.83
17362;BME280;8798;51.938;4.348;2024-01-30T06:26:50;102621.94;;;11.69;78.34
17362;BME280;8798;51.938;4.348;2024-01-30T06:29:18;102630.88;;;11.69;78.84
17362;BME280;8798;51.938;4.348;2024-01-30T06:31:47;102630.78;;;11.71;78.92
17362;BME280;8798;51.938;4.348;2024-01-30T06:34:15;102643.16;;;11.73;78.98
17362;BME280;8798;51.938;4.348;2024-01-30T06:36:43;102640.34;;;11.75;78.81
17362;BME280;8798;51.938;4.348;2024-01-30T06:39:11;102642.16;;;11.74;78.72
17362;BME280;8798;51.938;4.348;2024-01-30T06:41:41;102641.22;;;11.75;78.42
17362;BME280;8798;51.938;4.348;2024-01-30T06:44:09;102645.59;;;11.76;78.43
17362;BME280;8798;51.938;4.348;2024-01-30T06:46:37;102649.03;;;11.78;78.82
17362;BME280;8798;51.938;4.348;2024-01-30T06:49:05;102667.78;;;11.80;78.50
17362;BME280;8798;51.938;4.348;2024-01-30T06:51:33;102659.72;;;11.80;78.73
17362;BME280;8798;51.938;4.348;2024-01-30T06:54:01;102657.88;;;11.80;78.74
17362;BME280;8798;51.938;4.348;2024-01-30T06:56:29;102647.22;;;11.79;78.43
17362;BME280;8798;51.938;4.348;2024-01-30T06:58:58;102647.22;;;11.79;78.83
17362;BME280;8798;51.938;4.348;2024-01-30T07:01:28;102644.50;;;11.79;78.41
17362;BME280;8798;51.938;4.348;2024-01-30T07:03:57;102642.72;;;11.79;78.78
17362;BME280;8798;51.938;4.348;2024-01-30T07:06:25;102647.09;;;11.80;78.70
17362;BME280;8798;51.938;4.348;2024-01-30T07:08:53;102642.56;;;11.81;78.56
17362;BME280;8798;51.938;4.348;2024-01-30T07:11:22;102637.19;;;11.81;78.57
17362;BME280;8798;51.938;4.348;2024-01-30T07:13:50;102644.31;;;11.82;78.85
17362;BME280;8798;51.938;4.348;2024-01-30T07:16:20;102636.22;;;11.82;78.60
17362;BME280;8798;51.938;4.348;2024-01-30T07:18:49;102639.88;;;11.81;78.43
17362;BME280;8798;51.938;4.348;2024-01-30T07:21:17;102641.63;;;11.82;78.79
17362;BME280;8798;51.938;4.348;2024-01-30T07:23:45;102636.09;;;11.83;78.55
17362;BME280;8798;51.938;4.348;2024-01-30T07:26:13;102650.41;;;11.84;78.23
17362;BME280;8798;51.938;4.348;2024-01-30T07:28:41;102640.53;;;11.84;78.21
17362;BME280;8798;51.938;4.348;2024-01-30T07:31:10;102636.22;;;11.82;78.68
17362;BME280;8798;51.938;4.348;2024-01-30T07:33:43;102633.53;;;11.82;78.21
17362;BME280;8798;51.938;4.348;2024-01-30T07:36:11;102624.56;;;11.81;78.96
17362;BME280;8798;51.938;4.348;2024-01-30T07:38:39;102632.56;;;11.83;78.40
17362;BME280;8798;51.938;4.348;2024-01-30T07:41:07;102633.41;;;11.83;78.56
17362;BME280;8798;51.938;4.348;2024-01-30T07:43:35;102639.63;;;11.84;78.59
17362;BME280;8798;51.938;4.348;2024-01-30T07:46:04;102632.31;;;11.86;78.17
17362;BME280;8798;51.938;4.348;2024-01-30T07:48:33;102637.69;;;11.86;78.65
17362;BME280;8798;51.938;4.348;2024-01-30T07:51:03;102645.78;;;11.86;78.74
17362;BME280;8798;51.938;4.348;2024-01-30T07:53:31;102640.31;;;11.88;78.69
17362;BME280;8798;51.938;4.348;2024-01-30T07:55:59;102654.41;;;11.91;78.92
17362;BME280;8798;51.938;4.348;2024-01-30T07:58:27;102665.91;;;11.93;78.22
17362;BME280;8798;51.938;4.348;2024-01-30T08:00:55;102664.97;;;11.94;78.45
17362;BME280;8798;51.938;4.348;2024-01-30T08:03:25;102667.66;;;11.94;78.54
17362;BME280;8798;51.938;4.348;2024-01-30T08:05:58;102667.53;;;11.96;78.23
17362;BME280;8798;51.938;4.348;2024-01-30T08:08:27;102678.06;;;11.99;78.97
17362;BME280;8798;51.938;4.348;2024-01-30T08:10:55;102688.72;;;12.00;78.59
17362;BME280;8798;51.938;4.348;2024-01-30T08:13:23;102682.47;;;12.00;78.73
17362;BME280;8798;51.938;4.348;2024-01-30T08:15:51;102683.22;;;12.02;78.87
17362;BME280;8798;51.938;4.348;2024-01-30T08:18:19;102701.84;;;12.05;78.73
17362;BME280;8798;51.938;4.348;2024-01-30T08:20:48;102708.94;;;12.06;78.42
17362;BME280;8798;51.938;4.348;2024-01-30T08:23:16;102715.94;;;12.09;78.66
17362;BME280;8798;51.938;4.348;2024-01-30T08:25:45;102718.53;;;12.10;78.79
17362;BME280;8798;51.938;4.348;2024-01-30T08:28:13;102715.84;;;12.10;78.62
17362;BME280;8798;51.938;4.348;2024-01-30T08:30:45;102725.63;;;12.11;79.07
17362;BME280;8798;51.938;4.348;2024-01-30T08:33:13;102722.81;;;12.13;78.96
17362;BME280;8798;51.938;4.348;2024-01-30T08:35:41;102724.53;;;12.14;78.72
17362;BME280;8798;51.938;4.348;2024-01-30T08:38:09;102736.06;;;12.16;78.96
17362;BME280;8798;51.938;4.348;2024-01-30T08:40:39;102741.34;;;12.17;78.67
17362;BME280;8798;51.938;4.348;2024-01-30T08:43:08;102739.50;;;12.18;78.66
17362;BME280;8798;51.938;4.348;2024-01-30T08:45:37;102742.94;;;12.20;79.11
17362;BME280;8798;51.938;4.348;2024-01-30T08:48:06;102739.25;;;12.21;78.75
17362;BME280;8798;51.938;4.348;2024-01-30T08:50:34;102737.56;;;12.20;78.88
17362;BME280;8798;51.938;4.348;2024-01-30T08:53:03;102726.78;;;12.20;78.51
17362;BME280;8798;51.938;4.348;2024-01-30T08:55:31;102736.69;;;12.19;78.58
17362;BME280;8798;51.938;4.348;2024-01-30T08:57:59;102722.25;;;12.20;78.88
17362;BME280;8798;51.938;4.348;2024-01-30T09:00:29;102745.41;;;12.23;78.81
17362;BME280;8798;51.938;4.348;2024-01-30T09:02:57;102740.13;;;12.21;79.10
17362;BME280;8798;51.938;4.348;2024-01-30T09:05:24;102723.94;;;12.21;78.66
17362;BME280;8798;51.938;4.348;2024-01-30T09:07:52;102713.41;;;12.18;79.07
17362;BME280;8798;51.938;4.348;2024-01-30T09:10:21;102701.88;;;12.16;79.11
17362;BME280;8798;51.938;4.348;2024-01-30T09:12:49;102684.13;;;12.14;79.06
17362;BME280;8798;51.938;4.348;2024-01-30T09:15:17;102682.53;;;12.11;78.87
17362;BME280;8798;51.938;4.348;2024-01-30T09:17:48;102667.44;;;12.09;79.11
17362;BME280;8798;51.938;4.348;2024-01-30T09:20:17;102655.22;;;12.04;78.49
17362;BME280;8798;51.938;4.348;2024-01-30T09:22:46;102639.16;;;12.03;79.00
17362;BME280;8798;51.938;4.348;2024-01-30T09:25:15;102630.31;;;12.01;78.50
17362;BME280;8798;51.938;4.348;2024-01-30T09:27:45;102616.34;;;11.96;79.04
17362;BME280;8798;51.938;4.348;2024-01-30T09:30:16;102588.91;;;11.91;78.39
17362;BME280;8798;51.938;4.348;2024-01-30T09:32:44;102564.25;;;11.84;78.61
17362;BME280;8798;51.938;4.348;2024-01-30T09:35:14;102551.03;;;11.81;79.21
17362;BME280;8798;51.938;4.348;2024-01-30T09:37:42;102548.47;;;11.79;78.17
17362;BME280;8798;51.938;4.348;2024-01-30T09:40:11;102554.56;;;11.81;78.44
17362;BME280;8798;51.938;4.348;2024-01-30T09:42:40;102563.53;;;11.82;78.49
17362;BME280;8798;51.938;4.348;2024-01-30T09:45:13;102543.19;;;11.78;78.31
17362;BME280;8798;51.938;4.348;2024-01-30T09:47:42;102532.66;;;11.75;79.03
17362;BME280;8798;51.938;4.348;2024-01-30T09:50:12;102520.28;;;11.72;79.02
17362;BME280;8798;51.938;4.348;2024-01-30T09:52:42;102511.72;;;11.67;78.38
17362;BME280;8798;51.938;4.348;2024-01-30T09:55:11;102490.53;;;11.62;78.44
17362;BME280;8798;51.938;4.348;2024-01-30T09:57:39;102483.56;;;11.60;78.61
17362;BME280;8798;51.938;4.348;2024-01-30T10:00:10;102466.75;;;11.56;78.39
17362;BME280;8798;51.938;4.348;2024-01-30T10:02:38;102444.72;;;11.51;78.49
17362;BME280;8798;51.938;4.348;2024-01-30T10:05:08;102445.81;;;11.49;79.00
17362;BME280;8798;51.938;4.348;2024-01-30T10:07:36;102439.84;;;11.45;78.42
17362;BME280;8798;51.938;4.348;2024-01-30T10:10:07;102438.84;;;11.46;78.55
17362;BME280;8798;51.938;4.348;2024-01-30T10:12:35;102431.03;;;11.43;78.86
17362;BME280;8798;51.938;4.348;2024-01-30T10:15:06;102425.88;;;11.40;78.40
17362;BME280;8798;51.938;4.348;2024-01-30T10:17:37;102414.47;;;11.36;78.44
17362;BME280;8798;51.938;4.348;2024-01-30T10:20:08;102406.50;;;11.35;78.39
17362;BME280;8798;51.938;4.348;2024-01-30T10:22:37;102406.66;;;11.33;78.99
17362;BME280;8798;51.938;4.348;2024-01-30T10:25:07;102401.38;;;11.32;78.35
17362;BME280;8798;51.938;4.348;2024-01-30T10:27:35;102394.41;;;11.29;78.52
17362;BME280;8798;51.938;4.348;2024-01-30T10:30:04;102393.56;;;11.29;78.57
17362;BME280;8798;51.938;4.348;2024-01-30T10:32:32;102390.97;;;11.27;78.77
17362;BME280;8798;51.938;4.348;2024-01-30T10:35:00;102386.81;;;11.23;78.46
17362;BME280;8798;51.938;4.348;2024-01-30T10:37:30;102362.09;;;11.18;78.07
17362;BME280;8798;51.938;4.348;2024-01-30T10:40:02;102344.59;;;11.12;78.36
17362;BME280;8798;51.938;4.348;2024-01-30T10:42:36;102348.25;;;11.11;78.77
17362;BME280;8798;51.938;4.348;2024-01-30T10:45:06;102335.06;;;11.08;78.43
17362;BME280;8798;51.938;4.348;2024-01-30T10:47:36;102328.19;;;11.04;78.58
17362;BME280;8798;51.938;4.348;2024-01-30T10:50:05;102321.22;;;11.02;78.49
17362;BME280;8798;51.938;4.348;2024-01-30T10:52:34;102306.28;;;10.97;78.09
17362;BME280;8798;51.938;4.348;2024-01-30T10:55:04;102299.47;;;10.93;78.73
17362;BME280;8798;51.938;4.348;2024-01-30T10:57:36;102299.47;;;10.93;78.49
17362;BME280;8798;51.938;4.348;2024-01-30T11:00:06;102283.78;;;10.87;78.61
17362;BME280;8798;51.938;4.348;2024-01-30T11:02:38;102267.28;;;10.81;78.61
17362;BME280;8798;51.938;4.348;2024-01-30T11:05:08;102245.16;;;10.77;78.21
17362;BME280;8798;51.938;4.348;2024-01-30T11:07:36;102246.25;;;10.74;78.68
17362;BME280;8798;51.938;4.348;2024-01-30T11:10:07;102231.44;;;10.69;78.28
17362;BME280;8798;51.938;4.348;2024-01-30T11:12:40;102214.94;;;10.62;78.27
17362;BME280;8798;51.938;4.348;2024-01-30T11:15:12;102207.13;;;10.59;78.81
17362;BME280;8798;51.938;4.348;2024-01-30T11:17:42;102196.63;;;10.56;78.48
17362;BME280;8798;51.938;4.348;2024-01-30T11:20:11;102207.38;;;10.56;78.69
17362;BME280;8798;51.938;4.348;2024-01-30T11:22:42;102211.13;;;10.53;78.26
17362;BME280;8798;51.938;4.348;2024-01-30T11:25:13;102216.50;;;10.53;78.34
17362;BME280;8798;51.938;4.348;2024-01-30T11:27:43;102232.41;;;10.57;78.39
17362;BME280;8798;51.938;4.348;2024-01-30T11:30:21;102254.50;;;10.60;78.14
17362;BME280;8798;51.938;4.348;2024-01-30T11:33:00;102283.84;;;10.63;78.38
17362;BME280;8798;51.938;4.348;2024-01-30T11:35:30;102285.66;;;10.63;78.53
17362;BME280;8798;51.938;4.348;2024-01-30T11:38:00;102268.06;;;10.59;78.48
17362;BME280;8798;51.938;4.348;2024-01-30T11:40:29;102278.81;;;10.59;78.29
17362;BME280;8798;51.938;4.348;2024-01-30T11:43:00;102284.19;;;10.59;78.70
17362;BME280;8798;51.938;4.348;2024-01-30T11:45:28;102307.03;;;10.64;78.31
17362;BME280;8798;51.938;4.348;2024-01-30T11:47:57;102325.63;;;10.67;78.95
17362;BME280;8798;51.938;4.348;2024-01-30T11:50:27;102327.44;;;10.67;78.35
17362;BME280;8798;51.938;4.348;2024-01-30T11:52:59;102329.28;;;10.66;78.68
17362;BME280;8798;51.938;4.348;2024-01-30T11:55:28;102320.72;;;10.61;78.35
17362;BME280;8798;51.938;4.348;2024-01-30T11:58:02;102303.09;;;10.57;78.46
17362;BME280;8798;51.938;4.348;2024-01-30T12:00:31;102304.19;;;10.54;78.18
17362;BME280;8798;51.938;4.348;2024-01-30T12:03:01;102299.66;;;10.55;78.55
17362;BME280;8798;51.938;4.348;2024-01-30T12:05:30;102304.28;;;10.53;78.39
17362;BME280;8798;51.938;4.348;2024-01-30T12:07:58;102306.13;;;10.52;78.54
17362;BME280;8798;51.938;4.348;2024-01-30T12:10:28;102303.56;;;10.51;78.40
17362;BME280;8798;51.938;4.348;2024-01-30T12:12:57;102300.25;;;10.47;78.27
17362;BME280;8798;51.938;4.348;2024-01-30T12:15:27;102294.97;;;10.46;78.13
17362;BME280;8798;51.938;4.348;2024-01-30T12:18:03;102288.00;;;10.43;78.16
17362;BME280;8798;51.938;4.348;2024-01-30T12:20:32;102299.50;;;10.45;78.33
17362;BME280;8798;51.938;4.348;2024-01-30T12:23:00;102320.03;;;10.46;78.39
17362;BME280;8798;51.938;4.348;2024-01-30T12:25:29;102321.84;;;10.46;77.96
17362;BME280;8798;51.938;4.348;2024-01-30T12:27:57;102302.53;;;10.41;78.48
17362;BME280;8798;51.938;4.348;2024-01-30T12:30:27;102296.63;;;10.36;78.37
17362;BME280;8798;51.938;4.348;2024-01-30T12:32:56;102275.50;;;10.31;78.47
17362;BME280;8798;51.938;4.348;2024-01-30T12:35:25;102282.84;;;10.29;78.30
17362;BME280;8798;51.938;4.348;2024-01-30T12:37:57;102281.94;;;10.28;78.18
17362;BME280;8798;51.938;4.348;2024-01-30T12:40:25;102288.28;;;10.27;78.08
17362;BME280;8798;51.938;4.348;2024-01-30T12:42:54;102268.97;;;10.22;78.35
17362;BME280;8798;51.938;4.348;2024-01-30T12:45:22;102272.50;;;10.23;77.90
17362;BME280;8798;51.938;4.348;2024-01-30T12:47:51;102282.28;;;10.24;78.38
17362;BME280;8798;51.938;4.348;2024-01-30T12:50:19;102310.75;;;10.26;78.75
17362;BME280;8798;51.938;4.348;2024-01-30T12:52:49;102312.44;;;10.27;78.75
17362;BME280;8798;51.938;4.348;2024-01-30T12:55:17;102324.91;;;10.28;78.41
17362;BME280;8798;51.938;4.348;2024-01-30T12:57:45;102327.72;;;10.27;78.58
17362;BME280;8798;51.938;4.348;2024-01-30T13:00:13;102334.81;;;10.28;78.70
17362;BME280;8798;51.938;4.348;2024-01-30T13:02:44;102343.72;;;10.28;78.32
17362;BME280;8798;51.938;4.348;2024-01-30T13:05:13;102366.72;;;10.32;78.92
17362;BME280;8798;51.938;4.348;2024-01-30T13:07:42;102373.78;;;10.33;78.59